Time;durP1;ratioP1;P1;durP2;ratioP2;P2;SDS_P1;SDS_P2;PMS_P1;PMS_P2;Temp;Humidity;BMP_temperature;BMP_pressure;BME280_temperature;BME280_humidity;BME280_pressure;Samples;Min_cycle;Max_cycle;Signal;HPM_P1;HPM_P2
2022/03/22 00:00:39;;;;;;;3.38;3.13;;;2.90;93.20;;;;;;5055171;28;20208;-73
2022/03/22 00:03:06;;;;;;;3.17;2.88;;;2.90;94.00;;;;;;5055081;28;20575;-74
2022/03/22 00:05:39;;;;;;;3.05;2.78;;;2.90;94.70;;;;;;5055945;28;20200;-74
2022/03/22 00:08:07;;;;;;;2.95;2.75;;;2.90;94.10;;;;;;5055277;28;20650;-73
2022/03/22 00:10:34;;;;;;;3.15;2.85;;;2.80;93.90;;;;;;5055375;28;20296;-73
2022/03/22 00:13:00;;;;;;;2.88;2.70;;;2.80;93.50;;;;;;5055044;28;20292;-73
2022/03/22 00:15:28;;;;;;;2.75;2.55;;;2.80;92.90;;;;;;5055456;28;20206;-73
2022/03/22 00:17:54;;;;;;;3.25;3.05;;;2.80;92.90;;;;;;5055379;28;20246;-72
2022/03/22 00:20:23;;;;;;;2.83;2.63;;;2.80;92.90;;;;;;5054685;28;20316;-72
2022/03/22 00:22:51;;;;;;;2.72;2.53;;;2.70;92.40;;;;;;5054696;28;20204;-72
2022/03/22 00:25:18;;;;;;;2.95;2.75;;;2.70;92.10;;;;;;5055203;28;20201;-72
2022/03/22 00:27:53;;;;;;;2.70;2.60;;;2.70;92.40;;;;;;5055826;28;20664;-71
2022/03/22 00:30:21;;;;;;;3.08;2.88;;;2.70;92.20;;;;;;5054930;28;20601;-71
2022/03/22 00:32:50;;;;;;;3.30;3.10;;;2.70;92.20;;;;;;5054790;28;20662;-71
2022/03/22 00:35:18;;;;;;;2.92;2.80;;;2.60;92.40;;;;;;5054711;28;20751;-72
2022/03/22 00:37:49;;;;;;;2.88;2.67;;;2.60;92.40;;;;;;5054662;28;20204;-72
2022/03/22 00:40:18;;;;;;;3.45;3.15;;;2.50;93.40;;;;;;5055223;28;20259;-70
2022/03/22 04:07:21;;;;;;;3.13;3.00;;;0.50;99.90;;;;;;5642474;22;20236;-70
2022/03/22 04:09:48;;;;;;;3.05;2.83;;;0.50;99.90;;;;;;5055207;28;20243;-70
2022/03/22 04:12:16;;;;;;;3.00;2.80;;;0.40;99.90;;;;;;5055183;28;20200;-70
2022/03/22 04:14:43;;;;;;;2.85;2.65;;;0.40;99.90;;;;;;5055059;28;20227;-70
2022/03/22 04:17:10;;;;;;;3.10;2.90;;;0.40;99.90;;;;;;5054708;28;20221;-70
2022/03/22 04:19:37;;;;;;;3.10;2.90;;;0.40;99.90;;;;;;5055042;28;20296;-70
2022/03/22 04:22:05;;;;;;;3.58;3.20;;;0.40;99.90;;;;;;5055511;28;20228;-70
2022/03/22 04:24:33;;;;;;;2.90;2.75;;;0.30;99.90;;;;;;5054617;28;20558;-71
2022/03/22 04:32:43;;;;;;;3.35;3.15;;;0.30;99.90;;;;;;5054443;28;20203;-70
2022/03/22 04:35:10;;;;;;;3.28;2.97;;;0.20;99.90;;;;;;5054416;28;20587;-69
2022/03/22 04:37:37;;;;;;;3.88;3.20;;;0.20;99.90;;;;;;5054353;28;20715;-69
2022/03/22 04:40:08;;;;;;;3.42;3.22;;;0.20;99.90;;;;;;5054674;28;20211;-69
2022/03/22 04:42:35;;;;;;;3.60;3.30;;;0.20;99.90;;;;;;5055115;28;20509;-69
2022/03/22 04:45:02;;;;;;;2.70;2.60;;;0.10;99.90;;;;;;5054128;28;20200;-69
2022/03/22 04:47:29;;;;;;;3.28;3.08;;;0.10;99.90;;;;;;5054409;28;20310;-69
2022/03/22 04:49:56;;;;;;;3.42;2.88;;;0.10;99.90;;;;;;5053483;28;20621;-70
2022/03/22 04:57:53;;;;;;;3.10;2.80;;;0.00;99.90;;;;;;5053969;28;20223;-69
2022/03/22 05:00:21;;;;;;;3.13;2.92;;;0.00;99.90;;;;;;5054204;28;20231;-69
2022/03/22 05:02:48;;;;;;;3.05;2.85;;;0.00;99.90;;;;;;5054720;28;20207;-69
2022/03/22 05:05:15;;;;;;;2.70;2.50;;;0.00;99.90;;;;;;5054177;28;20205;-69
2022/03/22 05:07:42;;;;;;;2.72;2.53;;;0.00;99.90;;;;;;5053546;28;20227;-69
2022/03/22 05:10:11;;;;;;;3.10;2.90;;;0.00;99.90;;;;;;5053568;28;20754;-70
2022/03/22 05:12:41;;;;;;;3.53;3.22;;;-0.10;99.90;;;;;;5054043;28;20227;-69
2022/03/22 05:15:09;;;;;;;3.10;2.90;;;0.00;99.90;;;;;;5053723;28;20688;-69
2022/03/22 05:17:37;;;;;;;2.88;2.67;;;-0.10;99.90;;;;;;5054096;28;20220;-69
2022/03/22 05:20:06;;;;;;;2.92;2.72;;;-0.10;99.90;;;;;;5053957;28;20201;-69
2022/03/22 05:22:36;;;;;;;3.25;2.95;;;-0.10;99.90;;;;;;5053498;28;20207;-70
2022/03/22 05:25:02;;;;;;;3.22;3.03;;;-0.10;99.90;;;;;;5053540;28;20664;-69
2022/03/22 05:27:31;;;;;;;3.42;3.17;;;-0.10;99.90;;;;;;5053695;28;20307;-69
2022/03/22 05:29:57;;;;;;;3.28;2.97;;;-0.10;99.90;;;;;;5053760;28;20287;-69
2022/03/22 05:32:24;;;;;;;3.45;3.20;;;-0.10;99.90;;;;;;5053449;28;20659;-70
2022/03/22 05:34:51;;;;;;;4.15;3.42;;;-0.10;99.90;;;;;;5053592;28;20315;-71
2022/03/22 05:37:21;;;;;;;3.30;2.97;;;-0.10;99.90;;;;;;5053736;28;20327;-71
2022/03/22 05:39:48;;;;;;;3.30;3.00;;;0.00;99.90;;;;;;5053183;28;20204;-72
2022/03/22 05:42:14;;;;;;;2.88;2.67;;;0.00;99.90;;;;;;5053529;28;20243;-73
2022/03/22 05:44:44;;;;;;;3.10;2.90;;;0.00;99.90;;;;;;5053217;28;20197;-72
2022/03/22 05:47:11;;;;;;;3.10;2.92;;;0.10;99.90;;;;;;5053361;28;20232;-73
2022/03/22 05:49:38;;;;;;;3.30;3.10;;;0.30;99.90;;;;;;5053106;28;20570;-73
2022/03/22 05:52:06;;;;;;;3.42;3.13;;;0.60;99.90;;;;;;5053454;28;20200;-72
2022/03/22 05:54:34;;;;;;;4.78;4.00;;;1.00;99.90;;;;;;5052925;28;20212;-74
2022/03/22 05:57:01;;;;;;;3.97;3.58;;;1.40;99.90;;;;;;5053068;28;20437;-73
2022/03/22 05:59:28;;;;;;;4.68;4.28;;;1.90;99.90;;;;;;5053402;28;20204;-74
2022/03/22 06:01:56;;;;;;;4.93;4.10;;;2.30;99.90;;;;;;5053310;28;20577;-70
2022/03/22 06:04:23;;;;;;;4.28;3.75;;;3.10;99.90;;;;;;5053061;28;20715;-69
2022/03/22 06:06:50;;;;;;;3.58;3.33;;;4.00;99.90;;;;;;5053320;28;20311;-70
2022/03/22 06:09:16;;;;;;;4.18;3.78;;;4.80;99.90;;;;;;5053186;28;20631;-70
2022/03/22 06:11:43;;;;;;;5.18;4.35;;;5.80;99.90;;;;;;5053309;28;20254;-70
2022/03/22 06:14:10;;;;;;;7.55;5.85;;;6.60;92.50;;;;;;5053315;28;20644;-70
2022/03/22 06:16:37;;;;;;;7.80;5.90;;;7.60;81.60;;;;;;5052948;28;20259;-71
2022/03/22 06:19:05;;;;;;;11.00;7.22;;;8.30;66.70;;;;;;5053186;28;20288;-71
2022/03/22 06:21:32;;;;;;;6.97;5.82;;;8.70;51.40;;;;;;5053018;28;20204;-71
2022/03/22 06:23:59;;;;;;;7.22;5.97;;;8.90;43.30;;;;;;5053079;28;20205;-71
2022/03/22 06:26:25;;;;;;;8.43;6.03;;;9.20;43.80;;;;;;5052790;28;20201;-72
2022/03/22 06:28:52;;;;;;;11.52;6.35;;;9.80;47.80;;;;;;5053272;28;20631;-72
2022/03/22 06:31:19;;;;;;;7.70;6.05;;;10.60;44.70;;;;;;5053213;28;20287;-72
2022/03/22 06:33:46;;;;;;;12.50;9.95;;;11.60;39.90;;;;;;5053089;28;20570;-71
2022/03/22 06:36:14;;;;;;;16.90;10.25;;;12.50;36.20;;;;;;5052630;28;20311;-71
2022/03/22 06:38:41;;;;;;;13.23;8.77;;;13.40;33.90;;;;;;5052725;28;20296;-70
2022/03/22 06:41:08;;;;;;;9.93;7.32;;;14.20;31.20;;;;;;5052998;28;20295;-70
2022/03/22 06:43:35;;;;;;;10.00;7.22;;;15.10;29.00;;;;;;5052920;28;20232;-70
2022/03/22 06:46:01;;;;;;;8.18;6.95;;;15.90;27.50;;;;;;5053154;28;20203;-69
2022/03/22 06:48:28;;;;;;;9.48;7.38;;;16.70;25.70;;;;;;5052972;28;20678;-69
2022/03/22 06:50:55;;;;;;;9.13;7.10;;;17.40;22.00;;;;;;5052985;28;20232;-70
2022/03/22 06:53:23;;;;;;;8.52;6.53;;;17.80;22.50;;;;;;5053008;28;20211;-70
2022/03/22 06:55:51;;;;;;;9.23;6.63;;;18.30;22.30;;;;;;5052918;28;20255;-70
2022/03/22 06:58:21;;;;;;;12.05;6.47;;;18.80;21.50;;;;;;5052873;28;20343;-69
2022/03/22 07:00:48;;;;;;;7.85;6.70;;;19.20;20.40;;;;;;5052683;28;20212;-69
2022/03/22 07:03:16;;;;;;;7.88;6.78;;;19.50;19.70;;;;;;5054340;28;20205;-70
2022/03/22 07:05:45;;;;;;;9.18;7.07;;;19.60;19.20;;;;;;5057137;28;20201;-70
2022/03/22 07:08:12;;;;;;;9.77;7.18;;;19.80;18.80;;;;;;5057255;28;20228;-70
2022/03/22 07:10:41;;;;;;;8.07;7.07;;;20.00;18.00;;;;;;5057162;28;20213;-70
2022/03/22 07:13:11;;;;;;;9.75;6.75;;;20.00;16.70;;;;;;5059463;28;20208;-69
2022/03/22 07:15:40;;;;;;;12.60;6.95;;;19.90;16.70;;;;;;5059322;28;20254;-69
2022/03/22 07:18:12;;;;;;;8.20;6.80;;;19.70;16.20;;;;;;5060571;28;20221;-69
2022/03/22 07:20:40;;;;;;;10.55;7.85;;;19.50;16.00;;;;;;5060216;28;20188;-69
2022/03/22 07:23:07;;;;;;;10.20;7.43;;;19.50;16.00;;;;;;5060406;28;20291;-69
2022/03/22 07:25:34;;;;;;;10.43;7.07;;;19.50;16.10;;;;;;5057916;28;20678;-68
2022/03/22 07:28:03;;;;;;;7.47;6.47;;;19.50;15.80;;;;;;5056771;28;20712;-69
2022/03/22 07:30:30;;;;;;;6.85;6.15;;;19.20;16.20;;;;;;5055829;28;20571;-69
2022/03/22 07:32:57;;;;;;;7.20;5.75;;;18.90;16.10;;;;;;5056077;28;20213;-69
2022/03/22 07:35:24;;;;;;;6.47;5.45;;;18.60;16.60;;;;;;5055945;28;20226;-69
2022/03/22 07:37:52;;;;;;;8.60;6.55;;;18.50;16.60;;;;;;5055888;28;20216;-68
2022/03/22 07:40:20;;;;;;;9.07;7.15;;;18.40;16.50;;;;;;5055902;28;20287;-67
2022/03/22 07:42:48;;;;;;;8.93;7.18;;;18.30;15.70;;;;;;5055976;28;20254;-67
2022/03/22 07:45:18;;;;;;;8.13;7.28;;;18.10;16.50;;;;;;5055889;28;20228;-68
2022/03/22 07:47:45;;;;;;;8.90;7.95;;;18.00;16.90;;;;;;5055796;28;20223;-68
2022/03/22 07:53:01;;;;;;;8.40;7.53;;;17.60;16.90;;;;;;5055693;28;20176;-68
2022/03/22 07:55:29;;;;;;;10.38;7.75;;;17.50;17.30;;;;;;5056226;28;20596;-67
2022/03/22 07:57:57;;;;;;;8.35;6.93;;;17.60;17.40;;;;;;5055352;28;20761;-67
2022/03/22 08:00:25;;;;;;;7.82;6.57;;;17.90;17.40;;;;;;5055822;28;20286;-67
2022/03/22 08:02:54;;;;;;;8.20;7.18;;;18.10;17.10;;;;;;5055774;28;20569;-67
2022/03/22 08:05:21;;;;;;;7.00;6.20;;;18.40;16.70;;;;;;5060071;28;20562;-68
2022/03/22 08:07:49;;;;;;;12.00;7.15;;;18.60;16.10;;;;;;5059874;28;20239;-68
2022/03/22 08:10:16;;;;;;;8.30;7.38;;;18.60;16.10;;;;;;5059606;28;20303;-68
2022/03/22 08:12:43;;;;;;;6.65;5.95;;;18.60;15.90;;;;;;5060200;28;20250;-68
2022/03/22 08:15:13;;;;;;;6.75;6.05;;;18.50;16.30;;;;;;5057663;28;20284;-69
2022/03/22 08:17:43;;;;;;;9.50;6.80;;;18.50;15.70;;;;;;5060188;28;20259;-68
2022/03/22 08:20:11;;;;;;;6.97;6.07;;;17.80;15.40;;;;;;5059996;28;20200;-67
2022/03/22 08:22:54;;;;;;;7.70;6.72;;;16.80;16.50;;;;;;5059956;28;20196;-68
2022/03/22 08:25:26;;;;;;;6.72;5.75;;;15.80;17.50;;;;;;5059944;28;20188;-68
2022/03/22 08:27:54;;;;;;;9.45;6.95;;;14.90;18.20;;;;;;5058699;28;20228;-67
2022/03/22 08:30:21;;;;;;;13.57;8.07;;;14.30;19.10;;;;;;5054740;28;20206;-67
2022/03/22 08:32:51;;;;;;;12.35;7.95;;;13.60;19.60;;;;;;5054961;28;20204;-68
2022/03/22 08:35:18;;;;;;;11.60;7.72;;;12.90;20.20;;;;;;5054404;28;20594;-68
2022/03/22 08:37:45;;;;;;;11.50;7.57;;;12.50;20.90;;;;;;5054656;28;20220;-67
2022/03/22 08:40:15;;;;;;;8.40;7.22;;;12.10;21.50;;;;;;5054657;28;20201;-68
2022/03/22 08:42:43;;;;;;;10.77;8.23;;;11.90;21.70;;;;;;5054429;28;20243;-68
2022/03/22 08:45:11;;;;;;;10.20;8.25;;;11.70;22.30;;;;;;5054456;28;20251;-68
2022/03/22 08:47:40;;;;;;;12.52;8.85;;;11.50;22.40;;;;;;5054625;28;20224;-69
2022/03/22 08:50:10;;;;;;;10.68;8.48;;;11.40;22.30;;;;;;5054886;28;20200;-69
2022/03/22 08:52:37;;;;;;;16.42;11.40;;;11.30;23.00;;;;;;5054617;28;20204;-68
2022/03/22 08:55:04;;;;;;;15.65;10.23;;;11.20;23.00;;;;;;5054841;28;20317;-70
2022/03/22 08:57:31;;;;;;;11.93;8.98;;;11.10;23.50;;;;;;5054645;28;20557;-67
2022/03/22 09:00:01;;;;;;;13.60;9.88;;;11.10;23.70;;;;;;5058526;28;20188;-68
2022/03/22 09:02:28;;;;;;;16.40;10.20;;;11.20;23.50;;;;;;5060556;28;20196;-68
2022/03/22 09:07:42;;;;;;;17.33;10.60;;;11.20;23.60;;;;;;5060074;28;20272;-68
2022/03/22 09:10:10;;;;;;;13.50;9.73;;;11.30;23.50;;;;;;5060376;28;20209;-68
2022/03/22 09:12:39;;;;;;;13.27;9.90;;;11.40;24.00;;;;;;5059225;28;20295;-69
2022/03/22 09:15:07;;;;;;;15.68;10.95;;;11.40;23.80;;;;;;5059191;28;20583;-69
2022/03/22 09:17:34;;;;;;;14.25;11.02;;;11.60;23.70;;;;;;5059184;28;20228;-69
2022/03/22 09:20:02;;;;;;;14.50;10.25;;;11.80;23.60;;;;;;5058758;28;20204;-69
2022/03/22 09:22:29;;;;;;;10.07;8.80;;;11.90;23.30;;;;;;5058597;28;20698;-69
2022/03/22 09:24:57;;;;;;;13.23;9.13;;;12.00;23.40;;;;;;5058448;28;20201;-69
2022/03/22 09:27:25;;;;;;;11.75;9.10;;;12.20;23.20;;;;;;5058682;28;20247;-69
2022/03/22 09:29:52;;;;;;;9.45;7.88;;;12.40;23.00;;;;;;5058138;28;20234;-69
2022/03/22 09:32:19;;;;;;;13.20;9.77;;;12.50;22.80;;;;;;5057722;28;20200;-69
2022/03/22 09:34:47;;;;;;;16.33;9.80;;;12.50;22.60;;;;;;5058298;28;20193;-68
2022/03/22 09:37:17;;;;;;;7.63;6.70;;;12.60;22.60;;;;;;5054535;28;20229;-68
2022/03/22 09:39:45;;;;;;;12.40;7.72;;;12.70;22.80;;;;;;5053836;28;20672;-68
2022/03/22 09:42:13;;;;;;;9.80;6.68;;;12.80;22.70;;;;;;5053854;28;20299;-68
2022/03/22 09:44:40;;;;;;;8.50;6.30;;;13.00;23.20;;;;;;5053436;28;20207;-68
2022/03/22 09:47:07;;;;;;;5.65;5.15;;;13.10;23.20;;;;;;5053427;28;20303;-68
2022/03/22 09:49:37;;;;;;;5.78;5.18;;;13.30;23.40;;;;;;5053683;28;20209;-69
2022/03/22 09:52:05;;;;;;;9.60;7.20;;;13.50;22.50;;;;;;5053748;28;20224;-70
2022/03/22 09:54:32;;;;;;;9.98;6.90;;;13.50;22.10;;;;;;5053713;28;20291;-67
2022/03/22 09:56:59;;;;;;;10.25;7.50;;;13.50;22.00;;;;;;5053475;28;20252;-68
2022/03/22 09:59:27;;;;;;;8.98;6.88;;;13.50;22.00;;;;;;5053515;28;20292;-68
2022/03/22 10:02:03;;;;;;;11.60;8.45;;;13.60;22.00;;;;;;5053415;28;20239;-69
2022/03/22 10:04:38;;;;;;;8.77;7.40;;;13.50;21.80;;;;;;5053704;28;20195;-70
2022/03/22 10:07:07;;;;;;;8.23;6.88;;;13.50;22.00;;;;;;5053827;28;20303;-71
2022/03/22 10:09:39;;;;;;;7.25;5.95;;;13.50;21.50;;;;;;5053462;28;20212;-69
2022/03/22 10:12:10;;;;;;;6.25;4.97;;;13.60;21.80;;;;;;5053394;28;20291;-70
2022/03/22 10:14:44;;;;;;;5.70;4.53;;;13.70;22.10;;;;;;5053501;28;20225;-70
2022/03/22 10:17:14;;;;;;;13.43;7.30;;;13.90;22.00;;;;;;5053195;28;20227;-71
2022/03/22 10:19:49;;;;;;;6.78;5.75;;;13.90;21.10;;;;;;5053228;28;20236;-71
2022/03/22 10:22:23;;;;;;;10.40;6.60;;;13.90;20.70;;;;;;5053402;28;20185;-71
2022/03/22 10:24:56;;;;;;;9.88;6.15;;;13.90;20.00;;;;;;5053951;28;20215;-70
2022/03/22 10:27:38;;;;;;;10.73;6.22;;;13.90;20.20;;;;;;5053336;28;20253;-71
2022/03/22 10:30:12;;;;;;;7.50;4.90;;;14.00;19.90;;;;;;5053490;28;20212;-70
2022/03/22 10:32:42;;;;;;;7.78;4.75;;;14.00;19.40;;;;;;5053076;28;20686;-68
2022/03/22 10:35:19;;;;;;;6.93;5.32;;;14.10;19.30;;;;;;5052921;28;20204;-69
2022/03/22 10:37:49;;;;;;;4.15;3.75;;;14.10;19.20;;;;;;5053433;28;20687;-70
2022/03/22 10:40:29;;;;;;;26.38;6.18;;;14.10;20.00;;;;;;5053436;28;20197;-69
2022/03/22 10:43:01;;;;;;;8.77;5.10;;;14.10;18.80;;;;;;5053648;28;20546;-69
2022/03/22 10:45:32;;;;;;;3.83;3.42;;;14.20;19.80;;;;;;5053181;28;20220;-70
2022/03/22 10:48:03;;;;;;;5.30;3.80;;;14.20;19.80;;;;;;5053808;28;20438;-69
2022/03/22 10:50:41;;;;;;;4.07;3.72;;;14.60;27.80;;;;;;5056652;28;20185;-69
2022/03/22 10:53:17;;;;;;;6.53;5.05;;;14.80;27.10;;;;;;5057118;28;20611;-70
2022/03/22 10:55:47;;;;;;;5.75;4.57;;;14.90;26.30;;;;;;5057293;28;20307;-69
2022/03/22 10:58:20;;;;;;;3.97;3.53;;;14.90;26.00;;;;;;5057544;28;20718;-69
2022/03/22 11:00:54;;;;;;;9.77;5.65;;;14.90;25.70;;;;;;5058059;28;20247;-71
2022/03/22 11:03:33;;;;;;;7.15;6.15;;;14.90;26.50;;;;;;5057064;28;20188;-71
2022/03/22 11:06:02;;;;;;;;;;;;;;;;;;5056910;28;20095;-70
2022/03/22 11:08:29;;;;;;;9.60;4.95;;;14.10;32.70;;;;;;5056080;28;20438;-67
2022/03/22 11:11:04;;;;;;;4.18;3.78;;;14.50;32.80;;;;;;5056141;28;20277;-68
2022/03/22 11:13:37;;;;;;;3.63;3.33;;;14.10;31.40;;;;;;5056375;28;20180;-68
2022/03/22 11:16:18;;;;;;;3.17;2.85;;;13.90;34.20;;;;;;5055911;28;20571;-67
2022/03/22 11:18:49;;;;;;;2.72;2.53;;;13.80;39.00;;;;;;5056662;28;20211;-68
2022/03/22 11:21:25;;;;;;;2.45;2.35;;;13.70;34.60;;;;;;5056824;28;20614;-69
2022/03/22 11:24:07;;;;;;;3.35;3.00;;;13.70;35.10;;;;;;5055914;28;20189;-69
2022/03/22 11:26:46;;;;;;;3.47;3.22;;;13.70;33.40;;;;;;5056141;28;20213;-70
2022/03/22 11:29:18;;;;;;;2.97;2.78;;;13.70;34.50;;;;;;5056157;28;20272;-69
2022/03/22 11:34:40;;;;;;;3.13;2.90;;;13.70;34.60;;;;;;5055487;28;20267;-68
2022/03/22 11:37:11;;;;;;;4.95;4.45;;;13.80;33.50;;;;;;5055572;28;20576;-68
2022/03/22 11:42:24;;;;;;;6.53;4.70;;;13.80;30.10;;;;;;5055927;28;20243;-69
2022/03/22 11:44:57;;;;;;;4.05;3.72;;;13.80;35.10;;;;;;5055618;28;20201;-70
2022/03/22 11:47:25;;;;;;;3.78;3.47;;;13.80;34.60;;;;;;5055672;28;20726;-70
2022/03/22 11:49:53;;;;;;;4.75;4.15;;;13.80;36.20;;;;;;5055454;28;20205;-70
2022/03/22 11:52:21;;;;;;;8.77;6.53;;;13.80;37.00;;;;;;5056174;28;20207;-71
2022/03/22 11:54:57;;;;;;;5.25;4.75;;;13.90;32.60;;;;;;5056064;28;20201;-70
2022/03/22 11:57:24;;;;;;;6.45;4.80;;;13.90;35.10;;;;;;5055532;28;20307;-70
2022/03/22 11:59:53;;;;;;;3.50;3.22;;;13.90;30.20;;;;;;5055273;28;20203;-70
2022/03/22 12:02:22;;;;;;;4.78;3.97;;;13.90;33.80;;;;;;5055326;28;20201;-70
2022/03/22 12:04:54;;;;;;;3.47;3.17;;;13.80;33.00;;;;;;5055646;28;20323;-70
2022/03/22 12:07:27;;;;;;;4.60;4.20;;;13.90;31.30;;;;;;5055767;28;20223;-70
2022/03/22 12:09:55;;;;;;;6.05;4.70;;;14.00;37.00;;;;;;5055596;28;20569;-69
2022/03/22 12:12:21;;;;;;;6.32;5.25;;;14.00;36.20;;;;;;5055393;28;20571;-69
2022/03/22 12:14:48;;;;;;;7.60;5.50;;;14.20;36.70;;;;;;5055153;28;20747;-69
2022/03/22 12:17:17;;;;;;;5.75;4.88;;;14.10;31.00;;;;;;5054960;28;20801;-70
2022/03/22 12:19:44;;;;;;;5.15;4.63;;;14.10;30.50;;;;;;5055380;28;20204;-69
2022/03/22 12:22:13;;;;;;;8.25;5.25;;;14.00;30.10;;;;;;5054945;28;20686;-69
2022/03/22 12:24:39;;;;;;;9.77;6.03;;;13.90;29.90;;;;;;5054852;28;20201;-69
2022/03/22 12:27:08;;;;;;;6.35;4.95;;;13.90;30.70;;;;;;5054713;28;20244;-68
2022/03/22 12:29:43;;;;;;;6.13;5.47;;;14.00;31.80;;;;;;5055107;28;20200;-67
2022/03/22 12:32:15;;;;;;;7.25;6.40;;;14.00;32.40;;;;;;5055029;28;20188;-67
2022/03/22 12:34:43;;;;;;;7.05;6.00;;;14.00;33.00;;;;;;5055055;28;20207;-68
2022/03/22 12:37:12;;;;;;;5.35;4.85;;;14.10;31.50;;;;;;5054831;28;20233;-67
2022/03/22 12:39:41;;;;;;;4.18;3.78;;;14.00;29.70;;;;;;5054958;28;20209;-67
2022/03/22 12:42:09;;;;;;;3.50;3.20;;;14.10;30.70;;;;;;5055046;28;20296;-67
2022/03/22 12:44:36;;;;;;;5.38;4.82;;;14.10;32.40;;;;;;5054680;28;20292;-67
2022/03/22 12:47:05;;;;;;;4.85;4.35;;;14.20;30.10;;;;;;5054553;28;20216;-67
2022/03/22 12:49:33;;;;;;;7.45;6.50;;;14.30;31.40;;;;;;5054300;28;20668;-67
2022/03/22 12:52:01;;;;;;;5.35;4.47;;;14.30;29.60;;;;;;5054419;28;20217;-67
2022/03/22 12:54:33;;;;;;;6.70;6.07;;;14.30;30.10;;;;;;5054472;28;20691;-68
2022/03/22 12:57:01;;;;;;;6.90;5.68;;;14.30;30.00;;;;;;5054827;28;20236;-68
2022/03/22 12:59:28;;;;;;;6.47;5.82;;;14.20;35.70;;;;;;5054266;28;20667;-68
2022/03/22 13:01:57;;;;;;;6.22;5.63;;;14.20;33.10;;;;;;5054533;28;20200;-68
2022/03/22 13:04:26;;;;;;;8.32;5.22;;;14.20;29.10;;;;;;5054479;28;20201;-68
2022/03/22 13:07:00;;;;;;;7.68;5.30;;;14.10;31.60;;;;;;5054357;28;20242;-68
2022/03/22 13:12:15;;;;;;;4.90;4.50;;;14.20;28.90;;;;;;5054461;28;20544;-68
2022/03/22 13:17:29;;;;;;;4.43;4.00;;;14.30;27.90;;;;;;5059443;28;20304;-68
2022/03/22 13:19:58;;;;;;;3.53;3.22;;;14.30;27.80;;;;;;5058636;28;20214;-68
2022/03/22 13:22:27;;;;;;;7.95;4.40;;;14.30;28.00;;;;;;5058443;28;20201;-69
2022/03/22 13:25:06;;;;;;;4.45;4.05;;;14.20;28.80;;;;;;5055762;28;20614;-70
2022/03/22 13:27:35;;;;;;;4.47;4.05;;;14.20;27.60;;;;;;5055474;28;20223;-70
2022/03/22 13:30:03;;;;;;;5.18;3.30;;;;;;;;;;5053905;28;20251;-70
2022/03/22 13:32:33;;;;;;;2.70;2.50;;;14.20;22.00;;;;;;5054105;28;20207;-70
2022/03/22 13:35:03;;;;;;;3.85;3.55;;;14.10;23.30;;;;;;5053721;28;20185;-71
2022/03/22 13:37:30;;;;;;;5.38;4.90;;;14.10;23.10;;;;;;5053703;28;20228;-70
2022/03/22 13:40:07;;;;;;;4.38;3.97;;;14.10;23.20;;;;;;5054369;28;20338;-71
2022/03/22 13:42:36;;;;;;;3.75;3.42;;;14.10;22.90;;;;;;5053516;28;20195;-70
2022/03/22 13:45:09;;;;;;;3.65;3.22;;;14.10;23.00;;;;;;5053657;28;20207;-71
2022/03/22 13:47:38;;;;;;;3.85;3.28;;;14.10;23.00;;;;;;5053673;28;20217;-70
2022/03/22 13:50:12;;;;;;;3.30;3.10;;;14.10;23.40;;;;;;5053646;28;20201;-70
2022/03/22 13:52:39;;;;;;;5.68;4.80;;;14.20;22.90;;;;;;5053576;28;20181;-71
2022/03/22 13:55:13;;;;;;;4.38;3.97;;;14.20;21.50;;;;;;5053632;28;20211;-70
2022/03/22 13:57:42;;;;;;;5.72;4.68;;;14.20;21.50;;;;;;5053539;28;20220;-70
2022/03/22 14:00:10;;;;;;;4.10;3.80;;;14.10;21.60;;;;;;5053244;28;20571;-70
2022/03/22 14:02:37;;;;;;;4.63;4.13;;;14.10;21.30;;;;;;5053614;28;20281;-67
2022/03/22 14:05:04;;;;;;;6.18;3.92;;;14.10;21.30;;;;;;5053558;28;20295;-67
2022/03/22 14:07:31;;;;;;;4.28;3.88;;;14.10;20.40;;;;;;5053353;28;20299;-68
2022/03/22 14:09:58;;;;;;;3.85;3.47;;;14.20;20.70;;;;;;5053064;28;20682;-68
2022/03/22 14:12:24;;;;;;;3.80;3.50;;;14.10;20.30;;;;;;5053499;28;20566;-68
2022/03/22 14:14:53;;;;;;;3.05;2.83;;;14.10;20.50;;;;;;5053499;28;20207;-68
2022/03/22 14:17:19;;;;;;;5.07;3.80;;;14.20;21.20;;;;;;5053185;28;20247;-68
2022/03/22 14:19:46;;;;;;;4.00;3.70;;;14.10;20.00;;;;;;5053331;28;20270;-68
2022/03/22 14:22:13;;;;;;;3.13;2.78;;;14.10;19.40;;;;;;5056187;28;20268;-68
2022/03/22 14:24:40;;;;;;;3.60;2.97;;;14.10;20.00;;;;;;5057804;28;20197;-67
2022/03/22 14:27:07;;;;;;;3.10;2.72;;;14.10;19.00;;;;;;5059001;28;20252;-68
2022/03/22 14:29:34;;;;;;;2.80;2.60;;;14.10;18.20;;;;;;5057957;28;20251;-68
2022/03/22 14:32:03;;;;;;;2.83;2.72;;;14.00;18.40;;;;;;5057560;28;20200;-67
2022/03/22 14:37:14;;;;;;;2.00;1.90;;;14.00;19.10;;;;;;5057134;28;20689;-69
2022/03/22 14:39:42;;;;;;;2.20;2.00;;;13.90;18.30;;;;;;5057217;28;20201;-68
2022/03/22 14:42:10;;;;;;;1.63;1.63;;;13.90;18.60;;;;;;5056985;28;20528;-68
2022/03/22 14:44:37;;;;;;;1.98;1.88;;;13.90;18.70;;;;;;5057065;28;20209;-68
2022/03/22 14:47:06;;;;;;;2.55;2.45;;;13.90;18.90;;;;;;5057079;28;20228;-70
2022/03/22 14:49:33;;;;;;;2.10;2.00;;;14.00;19.20;;;;;;5057113;28;20211;-70
2022/03/22 14:54:44;;;;;;;2.30;2.20;;;14.00;19.10;;;;;;5057417;28;20184;-68
2022/03/22 14:59:55;;;;;;;1.88;1.77;;;13.90;19.00;;;;;;5057240;28;20250;-68
2022/03/22 15:02:24;;;;;;;1.27;1.27;;;13.80;19.20;;;;;;5064185;28;20200;-70
2022/03/22 15:04:51;;;;;;;1.58;1.58;;;13.70;19.40;;;;;;5062503;28;20211;-67
2022/03/22 15:07:21;;;;;;;1.65;1.65;;;13.70;20.00;;;;;;5059963;28;20220;-66
2022/03/22 15:09:49;;;;;;;1.70;1.60;;;13.70;21.00;;;;;;5059161;28;20209;-68
2022/03/22 15:12:16;;;;;;;2.00;1.90;;;13.70;20.40;;;;;;5057159;28;20200;-69
2022/03/22 15:14:43;;;;;;;3.03;2.80;;;13.60;19.20;;;;;;5067896;28;20287;-67
2022/03/22 15:17:12;;;;;;;2.92;2.72;;;13.70;18.20;;;;;;5065174;28;20312;-67
2022/03/22 15:19:40;;;;;;;3.33;3.05;;;13.60;17.40;;;;;;5056559;28;20197;-69
2022/03/22 15:22:07;;;;;;;2.45;2.33;;;13.70;17.30;;;;;;5056449;28;20228;-69
2022/03/22 15:24:34;;;;;;;2.65;2.45;;;13.70;17.90;;;;;;5056521;28;20259;-68
2022/03/22 15:27:01;;;;;;;2.08;1.98;;;13.70;18.40;;;;;;5055842;28;20699;-69
2022/03/22 15:29:28;;;;;;;2.50;2.30;;;13.70;17.70;;;;;;5056036;28;20300;-69
2022/03/22 15:31:55;;;;;;;1.55;1.55;;;13.60;18.10;;;;;;5056196;28;20207;-69
2022/03/22 15:34:22;;;;;;;1.73;1.63;;;13.60;18.60;;;;;;5055387;28;20254;-69
2022/03/22 15:36:50;;;;;;;1.80;1.70;;;13.50;19.30;;;;;;5055943;28;20224;-69
2022/03/22 15:39:17;;;;;;;1.73;1.63;;;13.40;19.50;;;;;;5055746;28;20240;-69
2022/03/22 15:41:43;;;;;;;2.13;1.70;;;13.40;19.50;;;;;;5056125;28;20212;-69
2022/03/22 15:44:10;;;;;;;2.00;1.90;;;13.30;19.60;;;;;;5055576;28;20638;-69
2022/03/22 15:46:37;;;;;;;1.63;1.63;;;13.20;19.40;;;;;;5056089;28;20646;-70
2022/03/22 15:49:05;;;;;;;1.60;1.60;;;13.20;19.50;;;;;;5055813;28;20567;-70
2022/03/22 15:51:32;;;;;;;1.23;1.23;;;13.20;20.00;;;;;;5055498;28;20204;-70
2022/03/22 15:54:00;;;;;;;1.55;1.48;;;13.10;20.60;;;;;;5055451;28;20204;-70
2022/03/22 15:56:27;;;;;;;1.80;1.70;;;13.00;21.40;;;;;;5055407;28;20232;-69
2022/03/22 15:58:54;;;;;;;1.20;1.20;;;12.80;21.10;;;;;;5055587;28;20221;-69
2022/03/22 16:01:22;;;;;;;2.08;1.98;;;12.70;21.30;;;;;;5055542;28;20283;-69
2022/03/22 16:03:50;;;;;;;1.60;1.50;;;12.60;21.60;;;;;;5055306;28;20592;-69
2022/03/22 16:06:18;;;;;;;2.17;2.08;;;12.60;22.00;;;;;;5055390;28;20205;-69
2022/03/22 16:08:45;;;;;;;2.13;2.03;;;12.50;22.20;;;;;;5055314;28;20207;-69
2022/03/22 16:11:13;;;;;;;4.85;3.47;;;12.50;22.50;;;;;;5055603;28;20205;-70
2022/03/22 16:13:40;;;;;;;4.07;3.78;;;12.40;23.40;;;;;;5055329;28;20200;-71
2022/03/22 16:16:08;;;;;;;3.38;3.15;;;12.30;24.00;;;;;;5055434;28;20201;-69
2022/03/22 16:18:36;;;;;;;3.97;3.67;;;12.10;24.40;;;;;;5055003;28;20652;-70
2022/03/22 16:21:03;;;;;;;2.92;2.65;;;12.00;24.70;;;;;;5055025;28;20287;-70
2022/03/22 16:23:31;;;;;;;2.67;2.47;;;11.90;24.70;;;;;;5055628;28;20204;-70
2022/03/22 16:25:59;;;;;;;2.47;2.30;;;11.70;25.10;;;;;;5054861;28;20212;-70
2022/03/22 16:28:27;;;;;;;2.20;2.10;;;11.60;26.10;;;;;;5055040;28;20213;-70
2022/03/22 16:30:54;;;;;;;2.13;2.00;;;11.50;26.30;;;;;;5055059;28;20201;-70
2022/03/22 16:41:35;;;;;;;1.65;1.55;;;10.90;27.80;;;;;;5055001;28;20179;-70
2022/03/22 16:44:05;;;;;;;1.63;1.63;;;10.80;28.30;;;;;;5062859;28;20287;-71
2022/03/22 16:46:32;;;;;;;1.30;1.30;;;10.60;28.70;;;;;;5069276;28;20232;-71
2022/03/22 16:48:59;;;;;;;1.20;1.20;;;10.50;28.90;;;;;;5056857;28;20197;-71
2022/03/22 16:51:28;;;;;;;1.30;1.25;;;10.30;29.60;;;;;;5054681;28;20197;-71
2022/03/22 16:53:54;;;;;;;1.38;1.38;;;10.20;29.60;;;;;;5054560;28;20668;-70
2022/03/22 16:56:22;;;;;;;1.08;1.08;;;10.00;30.50;;;;;;5054515;28;20211;-70
2022/03/22 16:58:49;;;;;;;1.33;1.33;;;9.90;31.20;;;;;;5054078;28;20232;-70
2022/03/22 17:01:17;;;;;;;1.48;1.42;;;9.80;31.60;;;;;;5054433;28;20200;-70
2022/03/22 17:03:45;;;;;;;1.27;1.27;;;9.70;32.00;;;;;;5054404;28;20287;-69